sensor_id;sensor_type;location;lat;lon;timestamp;temperature;humidity
47604;DHT22;33326;51.116;6.900;2022-08-01T00:03:46;22.90;99.90
47604;DHT22;33326;51.116;6.900;2022-08-01T00:08:49;22.80;99.90
47604;DHT22;33326;51.116;6.900;2022-08-01T00:13:52;22.80;99.90
47604;DHT22;33326;51.116;6.900;2022-08-01T00:18:53;22.90;99.90
47604;DHT22;33326;51.116;6.900;2022-08-01T00:23:57;22.90;99.90
47604;DHT22;33326;51.116;6.900;2022-08-01T00:28:59;22.90;99.90
47604;DHT22;33326;51.116;6.900;2022-08-01T00:34:01;22.90;99.90
47604;DHT22;33326;51.116;6.900;2022-08-01T00:39:04;22.80;99.90
47604;DHT22;33326;51.116;6.900;2022-08-01T00:44:06;22.80;99.90
47604;DHT22;33326;51.116;6.900;2022-08-01T00:49:08;22.70;99.90
47604;DHT22;33326;51.116;6.900;2022-08-01T00:54:11;22.70;99.90
47604;DHT22;33326;51.116;6.900;2022-08-01T00:59:14;22.60;99.90
47604;DHT22;33326;51.116;6.900;2022-08-01T01:04:18;22.50;99.90
47604;DHT22;33326;51.116;6.900;2022-08-01T01:09:30;22.40;99.90
47604;DHT22;33326;51.116;6.900;2022-08-01T01:14:39;22.50;99.90
47604;DHT22;33326;51.116;6.900;2022-08-01T01:19:48;22.50;99.90
47604;DHT22;33326;51.116;6.900;2022-08-01T01:25:08;22.50;99.90
47604;DHT22;33326;51.116;6.900;2022-08-01T01:30:12;22.50;99.90
47604;DHT22;33326;51.116;6.900;2022-08-01T01:35:19;22.30;99.90
47604;DHT22;33326;51.116;6.900;2022-08-01T01:40:24;22.30;99.90
47604;DHT22;33326;51.116;6.900;2022-08-01T01:45:28;22.30;99.90
47604;DHT22;33326;51.116;6.900;2022-08-01T01:50:32;22.20;99.90
47604;DHT22;33326;51.116;6.900;2022-08-01T01:55:35;22.30;99.90
47604;DHT22;33326;51.116;6.900;2022-08-01T02:00:41;22.10;99.90
47604;DHT22;33326;51.116;6.900;2022-08-01T02:05:44;22.20;99.90
47604;DHT22;33326;51.116;6.900;2022-08-01T02:10:46;22.30;99.90
47604;DHT22;33326;51.116;6.900;2022-08-01T02:16:05;22.30;99.90
47604;DHT22;33326;51.116;6.900;2022-08-01T02:21:10;22.30;99.90
47604;DHT22;33326;51.116;6.900;2022-08-01T02:26:14;22.30;99.90
47604;DHT22;33326;51.116;6.900;2022-08-01T02:31:21;22.20;99.90
47604;DHT22;33326;51.116;6.900;2022-08-01T02:36:26;22.20;99.90
47604;DHT22;33326;51.116;6.900;2022-08-01T02:41:30;22.20;99.90
47604;DHT22;33326;51.116;6.900;2022-08-01T02:46:37;22.20;99.90
47604;DHT22;33326;51.116;6.900;2022-08-01T02:51:40;22.30;99.90
47604;DHT22;33326;51.116;6.900;2022-08-01T02:56:44;22.20;99.90
47604;DHT22;33326;51.116;6.900;2022-08-01T03:01:48;22.30;99.90
47604;DHT22;33326;51.116;6.900;2022-08-01T03:06:53;22.30;99.90
47604;DHT22;33326;51.116;6.900;2022-08-01T03:11:59;22.20;99.90
47604;DHT22;33326;51.116;6.900;2022-08-01T03:17:04;22.20;99.90
47604;DHT22;33326;51.116;6.900;2022-08-01T03:22:08;22.10;99.90
47604;DHT22;33326;51.116;6.900;2022-08-01T03:27:12;22.10;99.90
47604;DHT22;33326;51.116;6.900;2022-08-01T03:32:17;22.10;99.90
47604;DHT22;33326;51.116;6.900;2022-08-01T03:37:24;22.00;99.90
47604;DHT22;33326;51.116;6.900;2022-08-01T03:42:32;22.10;99.90
47604;DHT22;33326;51.116;6.900;2022-08-01T03:47:36;22.20;99.90
47604;DHT22;33326;51.116;6.900;2022-08-01T03:52:39;22.20;99.90
47604;DHT22;33326;51.116;6.900;2022-08-01T03:57:44;22.10;99.90
47604;DHT22;33326;51.116;6.900;2022-08-01T04:02:49;22.20;99.90
47604;DHT22;33326;51.116;6.900;2022-08-01T04:07:51;22.10;99.90
47604;DHT22;33326;51.116;6.900;2022-08-01T04:12:56;22.00;99.90
47604;DHT22;33326;51.116;6.900;2022-08-01T04:17:59;22.10;99.90
47604;DHT22;33326;51.116;6.900;2022-08-01T04:23:01;22.10;99.90
47604;DHT22;33326;51.116;6.900;2022-08-01T04:28:04;22.20;99.90
47604;DHT22;33326;51.116;6.900;2022-08-01T04:33:10;22.20;99.90
47604;DHT22;33326;51.116;6.900;2022-08-01T04:38:17;22.20;99.90
47604;DHT22;33326;51.116;6.900;2022-08-01T04:43:21;22.20;99.90
47604;DHT22;33326;51.116;6.900;2022-08-01T04:48:26;22.20;99.90
47604;DHT22;33326;51.116;6.900;2022-08-01T04:53:28;22.10;99.90
47604;DHT22;33326;51.116;6.900;2022-08-01T04:58:32;22.10;99.90
47604;DHT22;33326;51.116;6.900;2022-08-01T05:03:36;22.10;99.90
47604;DHT22;33326;51.116;6.900;2022-08-01T05:08:38;22.00;99.90
47604;DHT22;33326;51.116;6.900;2022-08-01T05:13:41;22.10;99.90
47604;DHT22;33326;51.116;6.900;2022-08-01T05:18:44;22.10;99.90
47604;DHT22;33326;51.116;6.900;2022-08-01T05:23:46;22.10;99.90
47604;DHT22;33326;51.116;6.900;2022-08-01T05:28:49;22.10;99.90
47604;DHT22;33326;51.116;6.900;2022-08-01T05:33:52;22.10;99.90
47604;DHT22;33326;51.116;6.900;2022-08-01T05:38:54;22.20;99.90
47604;DHT22;33326;51.116;6.900;2022-08-01T05:43:56;22.20;99.90
47604;DHT22;33326;51.116;6.900;2022-08-01T05:49:00;22.20;99.90
47604;DHT22;33326;51.116;6.900;2022-08-01T05:54:02;22.20;99.90
47604;DHT22;33326;51.116;6.900;2022-08-01T05:59:05;22.20;99.90
47604;DHT22;33326;51.116;6.900;2022-08-01T06:04:08;22.20;99.90
47604;DHT22;33326;51.116;6.900;2022-08-01T06:09:10;22.20;99.90
47604;DHT22;33326;51.116;6.900;2022-08-01T06:14:12;22.10;99.90
47604;DHT22;33326;51.116;6.900;2022-08-01T06:19:15;22.20;99.90
47604;DHT22;33326;51.116;6.900;2022-08-01T06:24:17;22.20;99.90
47604;DHT22;33326;51.116;6.900;2022-08-01T06:29:18;22.20;99.90
47604;DHT22;33326;51.116;6.900;2022-08-01T06:34:22;22.20;99.90
47604;DHT22;33326;51.116;6.900;2022-08-01T06:39:23;22.20;99.90
47604;DHT22;33326;51.116;6.900;2022-08-01T06:44:25;22.20;99.90
47604;DHT22;33326;51.116;6.900;2022-08-01T06:49:28;22.30;99.90
47604;DHT22;33326;51.116;6.900;2022-08-01T06:54:30;22.20;99.90
47604;DHT22;33326;51.116;6.900;2022-08-01T06:59:32;22.10;99.90
47604;DHT22;33326;51.116;6.900;2022-08-01T07:04:35;22.30;99.90
47604;DHT22;33326;51.116;6.900;2022-08-01T07:09:37;22.20;99.90
47604;DHT22;33326;51.116;6.900;2022-08-01T07:14:41;22.30;99.90
47604;DHT22;33326;51.116;6.900;2022-08-01T07:19:44;22.20;99.90
47604;DHT22;33326;51.116;6.900;2022-08-01T07:24:46;22.20;99.90
47604;DHT22;33326;51.116;6.900;2022-08-01T07:29:48;22.20;99.90
47604;DHT22;33326;51.116;6.900;2022-08-01T07:34:51;22.30;99.90
47604;DHT22;33326;51.116;6.900;2022-08-01T07:39:53;22.50;99.90
47604;DHT22;33326;51.116;6.900;2022-08-01T07:44:55;22.50;99.90
47604;DHT22;33326;51.116;6.900;2022-08-01T07:50:01;22.40;99.90
47604;DHT22;33326;51.116;6.900;2022-08-01T07:55:04;22.60;99.90
47604;DHT22;33326;51.116;6.900;2022-08-01T08:00:07;22.70;99.90
47604;DHT22;33326;51.116;6.900;2022-08-01T08:05:11;22.80;99.90
47604;DHT22;33326;51.116;6.900;2022-08-01T08:10:13;22.80;99.90
47604;DHT22;33326;51.116;6.900;2022-08-01T08:15:15;22.70;99.90
47604;DHT22;33326;51.116;6.900;2022-08-01T08:20:18;22.70;99.90
47604;DHT22;33326;51.116;6.900;2022-08-01T08:25:25;22.80;99.90
47604;DHT22;33326;51.116;6.900;2022-08-01T08:30:27;22.90;99.90
47604;DHT22;33326;51.116;6.900;2022-08-01T08:35:31;23.00;99.90
47604;DHT22;33326;51.116;6.900;2022-08-01T08:40:38;23.20;99.90
47604;DHT22;33326;51.116;6.900;2022-08-01T08:45:39;23.30;99.90
47604;DHT22;33326;51.116;6.900;2022-08-01T08:50:43;23.40;99.90
47604;DHT22;33326;51.116;6.900;2022-08-01T08:55:47;23.40;99.90
47604;DHT22;33326;51.116;6.900;2022-08-01T09:00:49;23.50;99.90
47604;DHT22;33326;51.116;6.900;2022-08-01T09:05:52;23.70;99.90
47604;DHT22;33326;51.116;6.900;2022-08-01T09:10:54;23.70;99.90
47604;DHT22;33326;51.116;6.900;2022-08-01T09:15:56;23.60;99.90
47604;DHT22;33326;51.116;6.900;2022-08-01T09:21:20;23.80;99.90
47604;DHT22;33326;51.116;6.900;2022-08-01T09:26:30;23.90;99.90
47604;DHT22;33326;51.116;6.900;2022-08-01T09:31:40;23.80;99.90
47604;DHT22;33326;51.116;6.900;2022-08-01T09:36:49;23.80;99.90
47604;DHT22;33326;51.116;6.900;2022-08-01T09:41:52;23.80;99.90
47604;DHT22;33326;51.116;6.900;2022-08-01T09:46:55;23.70;99.90
47604;DHT22;33326;51.116;6.900;2022-08-01T09:52:11;23.80;99.90
47604;DHT22;33326;51.116;6.900;2022-08-01T09:57:16;24.30;99.90
47604;DHT22;33326;51.116;6.900;2022-08-01T10:02:28;24.70;99.90
47604;DHT22;33326;51.116;6.900;2022-08-01T10:07:32;24.50;99.90
47604;DHT22;33326;51.116;6.900;2022-08-01T10:12:34;24.40;99.90
47604;DHT22;33326;51.116;6.900;2022-08-01T10:17:38;24.50;99.90
47604;DHT22;33326;51.116;6.900;2022-08-01T10:22:44;24.60;99.90
47604;DHT22;33326;51.116;6.900;2022-08-01T10:27:48;24.60;99.90
47604;DHT22;33326;51.116;6.900;2022-08-01T10:32:50;24.80;99.90
47604;DHT22;33326;51.116;6.900;2022-08-01T10:37:55;24.90;99.90
47604;DHT22;33326;51.116;6.900;2022-08-01T10:42:59;24.80;99.90
47604;DHT22;33326;51.116;6.900;2022-08-01T10:48:06;24.80;99.90
47604;DHT22;33326;51.116;6.900;2022-08-01T10:53:12;24.90;99.90
47604;DHT22;33326;51.116;6.900;2022-08-01T10:58:20;25.00;99.90
47604;DHT22;33326;51.116;6.900;2022-08-01T11:03:32;25.00;99.90
47604;DHT22;33326;51.116;6.900;2022-08-01T11:08:37;25.00;99.90
47604;DHT22;33326;51.116;6.900;2022-08-01T11:14:02;25.20;99.90
47604;DHT22;33326;51.116;6.900;2022-08-01T11:19:07;25.50;99.90
47604;DHT22;33326;51.116;6.900;2022-08-01T11:24:12;25.60;99.90
47604;DHT22;33326;51.116;6.900;2022-08-01T11:29:17;25.30;99.90
47604;DHT22;33326;51.116;6.900;2022-08-01T11:34:19;25.20;99.90
47604;DHT22;33326;51.116;6.900;2022-08-01T11:39:22;25.30;99.90
47604;DHT22;33326;51.116;6.900;2022-08-01T11:44:24;25.20;99.80
47604;DHT22;33326;51.116;6.900;2022-08-01T11:49:45;25.40;99.50
47604;DHT22;33326;51.116;6.900;2022-08-01T11:54:56;25.50;99.60
47604;DHT22;33326;51.116;6.900;2022-08-01T11:59:58;25.80;99.40
47604;DHT22;33326;51.116;6.900;2022-08-01T12:05:02;26.10;98.50
47604;DHT22;33326;51.116;6.900;2022-08-01T12:10:07;26.00;98.10
47604;DHT22;33326;51.116;6.900;2022-08-01T12:15:12;26.20;98.00
47604;DHT22;33326;51.116;6.900;2022-08-01T12:20:16;26.40;98.10
47604;DHT22;33326;51.116;6.900;2022-08-01T12:25:22;26.40;97.20
47604;DHT22;33326;51.116;6.900;2022-08-01T12:30:24;26.50;96.30
47604;DHT22;33326;51.116;6.900;2022-08-01T12:35:28;26.70;96.10
47604;DHT22;33326;51.116;6.900;2022-08-01T12:40:33;26.70;95.90
47604;DHT22;33326;51.116;6.900;2022-08-01T12:45:38;26.70;95.30
47604;DHT22;33326;51.116;6.900;2022-08-01T12:50:44;26.80;95.50
47604;DHT22;33326;51.116;6.900;2022-08-01T12:55:49;26.80;95.70
47604;DHT22;33326;51.116;6.900;2022-08-01T13:01:03;27.00;95.40
47604;DHT22;33326;51.116;6.900;2022-08-01T13:06:10;27.10;95.40
47604;DHT22;33326;51.116;6.900;2022-08-01T13:11:14;27.00;95.20
47604;DHT22;33326;51.116;6.900;2022-08-01T13:16:18;26.90;95.00
47604;DHT22;33326;51.116;6.900;2022-08-01T13:21:21;26.80;94.70
47604;DHT22;33326;51.116;6.900;2022-08-01T13:26:39;26.90;94.70
47604;DHT22;33326;51.116;6.900;2022-08-01T13:31:42;26.80;94.00
47604;DHT22;33326;51.116;6.900;2022-08-01T13:36:44;26.70;94.70
47604;DHT22;33326;51.116;6.900;2022-08-01T13:41:48;26.70;94.50
47604;DHT22;33326;51.116;6.900;2022-08-01T13:46:50;26.90;96.10
47604;DHT22;33326;51.116;6.900;2022-08-01T13:51:52;27.00;94.30
47604;DHT22;33326;51.116;6.900;2022-08-01T13:56:55;26.90;94.20
47604;DHT22;33326;51.116;6.900;2022-08-01T14:01:57;27.00;94.50
47604;DHT22;33326;51.116;6.900;2022-08-01T14:06:58;26.90;95.10
47604;DHT22;33326;51.116;6.900;2022-08-01T14:12:02;27.10;95.00
47604;DHT22;33326;51.116;6.900;2022-08-01T14:17:04;27.00;94.70
47604;DHT22;33326;51.116;6.900;2022-08-01T14:22:06;27.00;94.80
47604;DHT22;33326;51.116;6.900;2022-08-01T14:27:09;26.90;94.20
47604;DHT22;33326;51.116;6.900;2022-08-01T14:32:11;26.70;94.50
47604;DHT22;33326;51.116;6.900;2022-08-01T14:37:13;26.70;94.90
47604;DHT22;33326;51.116;6.900;2022-08-01T14:42:16;26.60;94.50
47604;DHT22;33326;51.116;6.900;2022-08-01T14:47:18;26.70;95.10
47604;DHT22;33326;51.116;6.900;2022-08-01T14:52:19;26.70;95.90
47604;DHT22;33326;51.116;6.900;2022-08-01T14:57:23;26.80;96.00
47604;DHT22;33326;51.116;6.900;2022-08-01T15:02:25;26.90;96.10
47604;DHT22;33326;51.116;6.900;2022-08-01T15:07:27;27.00;96.00
47604;DHT22;33326;51.116;6.900;2022-08-01T15:12:30;26.90;96.00
47604;DHT22;33326;51.116;6.900;2022-08-01T15:17:32;26.80;96.00
47604;DHT22;33326;51.116;6.900;2022-08-01T15:22:34;26.80;96.30
47604;DHT22;33326;51.116;6.900;2022-08-01T15:27:37;26.80;96.30
47604;DHT22;33326;51.116;6.900;2022-08-01T15:32:39;26.70;96.70
47604;DHT22;33326;51.116;6.900;2022-08-01T15:37:40;26.80;96.30
47604;DHT22;33326;51.116;6.900;2022-08-01T15:42:44;26.80;96.40
47604;DHT22;33326;51.116;6.900;2022-08-01T15:47:46;27.00;96.60
47604;DHT22;33326;51.116;6.900;2022-08-01T15:52:48;26.90;96.40
47604;DHT22;33326;51.116;6.900;2022-08-01T15:57:52;26.70;96.60
47604;DHT22;33326;51.116;6.900;2022-08-01T16:02:54;26.60;96.50
47604;DHT22;33326;51.116;6.900;2022-08-01T16:07:56;26.50;96.70
47604;DHT22;33326;51.116;6.900;2022-08-01T16:12:59;26.50;96.60
47604;DHT22;33326;51.116;6.900;2022-08-01T16:18:01;26.50;96.80
47604;DHT22;33326;51.116;6.900;2022-08-01T16:23:03;26.50;96.90
47604;DHT22;33326;51.116;6.900;2022-08-01T16:28:06;26.30;96.90
47604;DHT22;33326;51.116;6.900;2022-08-01T16:33:09;26.20;97.00
47604;DHT22;33326;51.116;6.900;2022-08-01T16:38:11;26.10;96.90
47604;DHT22;33326;51.116;6.900;2022-08-01T16:43:15;26.10;96.90
47604;DHT22;33326;51.116;6.900;2022-08-01T16:48:17;26.10;96.90
47604;DHT22;33326;51.116;6.900;2022-08-01T16:53:20;26.10;96.90
47604;DHT22;33326;51.116;6.900;2022-08-01T16:58:24;26.10;96.90
47604;DHT22;33326;51.116;6.900;2022-08-01T17:03:25;26.20;96.90
47604;DHT22;33326;51.116;6.900;2022-08-01T17:08:27;26.30;96.80
47604;DHT22;33326;51.116;6.900;2022-08-01T17:13:30;26.20;96.70
47604;DHT22;33326;51.116;6.900;2022-08-01T17:18:32;26.30;96.80
47604;DHT22;33326;51.116;6.900;2022-08-01T17:23:34;26.10;96.20
47604;DHT22;33326;51.116;6.900;2022-08-01T17:28:38;26.10;95.90
47604;DHT22;33326;51.116;6.900;2022-08-01T17:33:40;25.90;95.50
47604;DHT22;33326;51.116;6.900;2022-08-01T17:38:43;25.80;95.80
47604;DHT22;33326;51.116;6.900;2022-08-01T17:43:46;25.70;95.80
47604;DHT22;33326;51.116;6.900;2022-08-01T17:48:48;25.70;96.00
47604;DHT22;33326;51.116;6.900;2022-08-01T17:53:50;25.60;95.80
47604;DHT22;33326;51.116;6.900;2022-08-01T17:58:53;25.60;96.00
47604;DHT22;33326;51.116;6.900;2022-08-01T18:03:55;25.50;95.90
47604;DHT22;33326;51.116;6.900;2022-08-01T18:08:58;25.40;95.70
47604;DHT22;33326;51.116;6.900;2022-08-01T18:14:01;25.10;95.70
47604;DHT22;33326;51.116;6.900;2022-08-01T18:19:04;25.00;95.80
47604;DHT22;33326;51.116;6.900;2022-08-01T18:24:06;25.00;95.80
47604;DHT22;33326;51.116;6.900;2022-08-01T18:29:10;25.00;95.70
47604;DHT22;33326;51.116;6.900;2022-08-01T18:34:12;25.10;95.60
47604;DHT22;33326;51.116;6.900;2022-08-01T18:39:14;25.00;95.40
47604;DHT22;33326;51.116;6.900;2022-08-01T18:44:17;25.00;95.40
47604;DHT22;33326;51.116;6.900;2022-08-01T18:49:19;25.00;95.30
47604;DHT22;33326;51.116;6.900;2022-08-01T18:54:21;24.80;95.20
47604;DHT22;33326;51.116;6.900;2022-08-01T18:59:25;24.80;95.40
47604;DHT22;33326;51.116;6.900;2022-08-01T19:04:27;24.90;95.60
47604;DHT22;33326;51.116;6.900;2022-08-01T19:09:29;24.80;95.50
47604;DHT22;33326;51.116;6.900;2022-08-01T19:14:32;24.80;95.50
47604;DHT22;33326;51.116;6.900;2022-08-01T19:19:34;24.70;95.50
47604;DHT22;33326;51.116;6.900;2022-08-01T19:24:35;24.60;95.20
47604;DHT22;33326;51.116;6.900;2022-08-01T19:29:39;24.60;95.20
47604;DHT22;33326;51.116;6.900;2022-08-01T19:34:54;24.40;95.00
47604;DHT22;33326;51.116;6.900;2022-08-01T19:39:59;24.40;95.10
47604;DHT22;33326;51.116;6.900;2022-08-01T19:45:03;24.30;95.30
47604;DHT22;33326;51.116;6.900;2022-08-01T19:50:05;24.20;95.40
47604;DHT22;33326;51.116;6.900;2022-08-01T19:55:08;24.10;95.60
47604;DHT22;33326;51.116;6.900;2022-08-01T20:00:13;24.00;95.60
47604;DHT22;33326;51.116;6.900;2022-08-01T20:05:15;23.90;95.80
47604;DHT22;33326;51.116;6.900;2022-08-01T20:10:19;23.80;96.00
47604;DHT22;33326;51.116;6.900;2022-08-01T20:15:23;23.80;96.30
47604;DHT22;33326;51.116;6.900;2022-08-01T20:20:26;23.60;96.30
47604;DHT22;33326;51.116;6.900;2022-08-01T20:25:29;23.60;96.50
47604;DHT22;33326;51.116;6.900;2022-08-01T20:30:33;23.50;96.60
47604;DHT22;33326;51.116;6.900;2022-08-01T20:35:36;23.40;96.70
47604;DHT22;33326;51.116;6.900;2022-08-01T20:40:38;23.30;96.80
47604;DHT22;33326;51.116;6.900;2022-08-01T20:45:44;23.20;96.90
47604;DHT22;33326;51.116;6.900;2022-08-01T20:50:47;23.20;97.10
47604;DHT22;33326;51.116;6.900;2022-08-01T20:56:10;23.10;97.20
47604;DHT22;33326;51.116;6.900;2022-08-01T21:01:25;23.10;97.30
47604;DHT22;33326;51.116;6.900;2022-08-01T21:06:34;23.00;97.40
47604;DHT22;33326;51.116;6.900;2022-08-01T21:11:41;23.00;97.50
47604;DHT22;33326;51.116;6.900;2022-08-01T21:16:48;22.90;97.60
47604;DHT22;33326;51.116;6.900;2022-08-01T21:21:57;22.80;97.70
47604;DHT22;33326;51.116;6.900;2022-08-01T21:27:02;22.80;97.80
47604;DHT22;33326;51.116;6.900;2022-08-01T21:32:07;22.70;98.00
47604;DHT22;33326;51.116;6.900;2022-08-01T21:37:15;22.70;98.20
47604;DHT22;33326;51.116;6.900;2022-08-01T21:42:17;22.60;98.40
47604;DHT22;33326;51.116;6.900;2022-08-01T21:47:21;22.60;98.40
47604;DHT22;33326;51.116;6.900;2022-08-01T21:52:23;22.50;98.60
47604;DHT22;33326;51.116;6.900;2022-08-01T21:57:39;22.40;98.70
47604;DHT22;33326;51.116;6.900;2022-08-01T22:02:49;22.30;98.90
47604;DHT22;33326;51.116;6.900;2022-08-01T22:07:53;22.20;98.90
47604;DHT22;33326;51.116;6.900;2022-08-01T22:12:56;22.20;99.20
47604;DHT22;33326;51.116;6.900;2022-08-01T22:18:00;22.10;99.40
47604;DHT22;33326;51.116;6.900;2022-08-01T22:23:03;22.00;99.60
47604;DHT22;33326;51.116;6.900;2022-08-01T22:28:06;21.90;99.80
47604;DHT22;33326;51.116;6.900;2022-08-01T22:33:11;21.80;99.90
47604;DHT22;33326;51.116;6.900;2022-08-01T22:38:15;21.80;99.90
47604;DHT22;33326;51.116;6.900;2022-08-01T22:43:23;21.70;99.90
47604;DHT22;33326;51.116;6.900;2022-08-01T22:48:32;21.60;99.90
47604;DHT22;33326;51.116;6.900;2022-08-01T22:53:42;21.60;99.90
47604;DHT22;33326;51.116;6.900;2022-08-01T22:58:47;21.50;99.90
47604;DHT22;33326;51.116;6.900;2022-08-01T23:03:53;21.50;99.90
47604;DHT22;33326;51.116;6.900;2022-08-01T23:08:59;21.40;99.90
47604;DHT22;33326;51.116;6.900;2022-08-01T23:14:03;21.30;99.90
47604;DHT22;33326;51.116;6.900;2022-08-01T23:19:08;21.30;99.90
47604;DHT22;33326;51.116;6.900;2022-08-01T23:24:10;21.20;99.90
47604;DHT22;33326;51.116;6.900;2022-08-01T23:29:13;21.20;99.90
47604;DHT22;33326;51.116;6.900;2022-08-01T23:34:16;21.00;99.90
47604;DHT22;33326;51.116;6.900;2022-08-01T23:39:18;21.00;99.90
47604;DHT22;33326;51.116;6.900;2022-08-01T23:44:20;20.80;99.90
47604;DHT22;33326;51.116;6.900;2022-08-01T23:49:23;20.80;99.90
47604;DHT22;33326;51.116;6.900;2022-08-01T23:54:25;20.80;99.90
47604;DHT22;33326;51.116;6.900;2022-08-01T23:59:27;20.80;99.90
